Pagrindinis puslapis
METAR-TAF:

METAR-TAF

Oro uostai :

Niamėjus, Nigeris

platuma: 13-29N, ilguma: 002-10E, Aukštis: 223 m

Dabartinis oras

Ataskaita buvo paskelbta 47 minutes, ne 08:00 UTC
Vėjas 6 kt iš Vakarų/Pietvakarių
Temperatūra 25°C
Drėgmė 89%
Slėgis 1014 hPa
Matomumas 10 km arba daugiau
Mažai debesys ne aukštis 1600 ft

METAR: DRRN 310800Z 24006KT 9999 FEW016 25/23 Q1014 NOSIG

Laikas: 09:47 (08:47 UTC)

Prognozė

Ataskaita buvo paskelbta 3 valandos ir 47 minutes, ne 05:00 UTC
Prognozė galioja nuo 31 metu 06 UTC su 01 metu 12 UTC
Vėjas 10 kt iš Vakarų
Matomumas 10 km arba daugiau
nėra debesų žemiau 1500 m ir nėra kamuolinių lietaus debesų
Nuo 31 metu 1100 UTC
Vėjas 8 kt iš Vakarų
Matomumas 10 km arba daugiau
Išsisklaidę debesys ne aukštis 2000 ft
Tikimybė 40% :
Laikinai
nuo 31 metu 15 UTC su 31 metu 18 UTC
Mažai debesys ne aukštis 2800 ft, Liūtiniai kamuoliniai debesys.
perkūnija

TAF: DRRN 310500Z 3106/0112 28010KT CAVOK FM311100 26008KT 9999 SCT020 PROB40 TEMPO 3115/3118 TS FEW028CB

Orai ataskaitas ir orų prognozės (METAR, TAF).

turimą stotys yra geltonos ir raudonos taškus žemėlapyje.

Perkelti pele per norėdami pamatyti stoties vardą.

Tada spustelėkite, norėdami matyti oro stebėjimo ir prognozės.

Norėdami pakeisti žemėlapį: spustelėkite ant žalios mygtukų su juodo kryžiaus žemyn,; žalią mygtuką su brūkšneliu, jei norite nutolinti; arba žalių rodyklių gretimoms žemėlapius.


METAR-TAF: